Time;durP1;ratioP1;P1;durP2;ratioP2;P2;SDS_P1;SDS_P2;PMS_P1;PMS_P2;Temp;Humidity;BMP_temperature;BMP_pressure;BME280_temperature;BME280_humidity;BME280_pressure;Samples;Min_cycle;Max_cycle;Signal;HPM_P1;HPM_P2
2022/04/18 00:01:10;;;;;;;12.60;5.60;;;;;1.10;97513.00;;;;110724;1252;41207;-59
2022/04/18 00:03:40;;;;;;;12.00;5.10;;;;;1.10;97509.60;;;;110630;1253;41292;-57
2022/04/18 00:06:10;;;;;;;12.00;4.50;;;;;1.04;97504.80;;;;110786;1251;41739;-59
2022/04/18 00:08:39;;;;;;;12.30;5.20;;;;;1.00;97497.00;;;;110766;1252;42184;-58
2022/04/18 00:11:08;;;;;;;11.90;5.40;;;;;1.00;97496.60;;;;110676;1252;42080;-58
2022/04/18 00:13:38;;;;;;;12.90;6.10;;;;;1.00;97496.20;;;;110655;1252;41979;-57
2022/04/18 00:16:08;;;;;;;11.50;4.90;;;;;1.00;97487.00;;;;110800;1252;41207;-59
2022/04/18 00:18:38;;;;;;;14.50;6.10;;;;;1.00;97482.40;;;;110776;1252;41455;-59
2022/04/18 00:21:08;;;;;;;14.80;6.30;;;;;1.00;97480.80;;;;110816;1252;41157;-59
2022/04/18 00:23:38;;;;;;;13.90;5.90;;;;;0.90;97480.20;;;;110775;1252;41934;-59
2022/04/18 00:26:07;;;;;;;13.40;6.20;;;;;0.90;97482.80;;;;110742;1251;41266;-59
2022/04/18 00:28:38;;;;;;;13.60;5.60;;;;;0.90;97478.40;;;;110802;1252;41164;-59
2022/04/18 00:31:08;;;;;;;12.70;5.30;;;;;0.80;97472.20;;;;110642;1252;41189;-59
2022/04/18 00:33:39;;;;;;;11.60;5.80;;;;;0.80;97465.80;;;;110665;1252;41158;-58
2022/04/18 00:36:09;;;;;;;15.40;5.90;;;;;0.80;97466.80;;;;110662;1252;41162;-59
2022/04/18 00:38:44;;;;;;;12.90;6.10;;;;;0.70;97461.00;;;;110738;1250;41140;-59
2022/04/18 00:41:14;;;;;;;12.90;6.10;;;;;0.70;97460.20;;;;110653;1252;41460;-59
2022/04/18 00:43:48;;;;;;;15.80;5.50;;;;;0.70;97464.40;;;;110558;1252;41148;-59
2022/04/18 00:46:20;;;;;;;11.90;4.80;;;;;0.62;97458.20;;;;110794;1252;41134;-59
2022/04/18 00:48:50;;;;;;;11.60;4.60;;;;;0.60;97457.60;;;;110685;1252;41990;-59
2022/04/18 00:51:26;;;;;;;10.80;4.80;;;;;0.60;97462.40;;;;110651;1252;41716;-59
2022/04/18 00:53:58;;;;;;;10.60;4.80;;;;;0.50;97453.80;;;;110625;1252;41809;-59
2022/04/18 00:56:28;;;;;;;11.30;5.20;;;;;0.50;97454.40;;;;110706;1252;41152;-60
2022/04/18 00:59:00;;;;;;;10.40;4.90;;;;;0.40;97453.20;;;;110503;1252;41285;-60
2022/04/18 01:01:30;;;;;;;11.20;5.00;;;;;0.40;97451.60;;;;110730;1250;41270;-60
2022/04/18 01:04:01;;;;;;;11.80;5.20;;;;;0.38;97445.60;;;;110651;1253;41132;-59
2022/04/18 01:06:33;;;;;;;10.60;4.50;;;;;0.30;97446.20;;;;110768;1252;41396;-56
2022/04/18 01:09:04;;;;;;;10.90;4.40;;;;;0.30;97446.20;;;;110735;1251;42498;-58
2022/04/18 01:11:34;;;;;;;13.00;5.30;;;;;0.30;97443.00;;;;110760;1252;41261;-59
2022/04/18 01:14:22;;;;;;;11.90;5.20;;;;;0.30;97444.00;;;;110677;1252;41157;-60
2022/04/18 01:17:04;;;;;;;11.70;5.40;;;;;0.34;97435.20;;;;110669;1252;41617;-60
2022/04/18 01:19:54;;;;;;;16.00;5.50;;;;;0.30;97433.40;;;;110534;1251;41266;-59
2022/04/18 01:22:45;;;;;;;11.50;5.10;;;;;0.30;97427.40;;;;110561;1252;41518;-59
2022/04/18 01:31:14;;;;;;;14.20;5.80;;;;;0.10;97422.00;;;;110648;1251;41634;-58
2022/04/18 01:33:45;;;;;;;10.80;5.00;;;;;0.10;97416.60;;;;110574;1254;42424;-60
2022/04/18 01:36:15;;;;;;;13.40;5.50;;;;;0.06;97418.80;;;;110706;1251;41495;-60
2022/04/18 01:38:45;;;;;;;15.10;6.40;;;;;0.10;97415.60;;;;110632;1253;41259;-59
2022/04/18 01:41:18;;;;;;;13.80;5.60;;;;;0.10;97419.20;;;;110693;1252;41736;-58
2022/04/18 01:43:48;;;;;;;11.70;5.40;;;;;0.10;97414.60;;;;110676;1252;41748;-58
2022/04/18 01:46:19;;;;;;;12.40;5.50;;;;;0.10;97410.20;;;;110798;1252;41207;-58
2022/04/18 01:48:51;;;;;;;12.10;5.60;;;;;0.10;97407.80;;;;110704;1251;42507;-59
2022/04/18 01:51:21;;;;;;;11.80;5.50;;;;;0.10;97409.60;;;;110762;1252;41211;-59
2022/04/18 01:53:58;;;;;;;12.80;5.60;;;;;0.10;97401.80;;;;110686;1250;41903;-58
2022/04/18 01:56:29;;;;;;;12.50;5.80;;;;;0.10;97398.80;;;;110645;1251;41157;-60
2022/04/18 01:58:59;;;;;;;13.10;5.60;;;;;0.10;97393.00;;;;110695;1253;41247;-59
2022/04/18 02:01:31;;;;;;;10.70;5.00;;;;;0.10;97386.40;;;;110767;1251;41182;-59
2022/04/18 02:04:01;;;;;;;10.70;5.10;;;;;0.10;97384.60;;;;110695;1252;41145;-59
2022/04/18 02:06:31;;;;;;;13.90;5.20;;;;;0.10;97384.20;;;;110643;1253;41892;-59
2022/04/18 02:09:02;;;;;;;10.10;4.50;;;;;0.10;97379.00;;;;110649;1252;42623;-60
2022/04/18 02:11:32;;;;;;;9.10;4.00;;;;;0.10;97374.00;;;;110750;1251;41986;-59
2022/04/18 02:14:03;;;;;;;;;;;;;0.10;97374.80;;;;110637;1253;41142;-59
2022/04/18 02:16:34;;;;;;;9.80;3.70;;;;;0.04;97371.80;;;;110692;1252;42145;-59
2022/04/18 02:19:05;;;;;;;9.30;3.90;;;;;0.00;97370.40;;;;110672;1252;41341;-59
2022/04/18 02:21:36;;;;;;;10.20;4.00;;;;;0.00;97367.60;;;;110746;1251;41904;-59
2022/04/18 02:24:07;;;;;;;11.10;4.70;;;;;0.00;97363.60;;;;110654;1253;41824;-60
2022/04/18 02:26:40;;;;;;;10.60;5.00;;;;;0.00;97363.20;;;;110711;1251;41907;-59
2022/04/18 02:29:13;;;;;;;11.80;5.40;;;;;0.00;97363.20;;;;110765;1251;41258;-59
2022/04/18 02:34:32;;;;;;;13.40;5.00;;;;;-0.04;97355.60;;;;110764;1251;41618;-58
2022/04/18 02:37:02;;;;;;;12.60;5.60;;;;;-0.10;97359.40;;;;110647;1252;41238;-58
2022/04/18 02:39:34;;;;;;;13.00;4.90;;;;;-0.10;97354.40;;;;110752;1253;41636;-58
2022/04/18 02:42:06;;;;;;;11.80;5.10;;;;;-0.10;97357.40;;;;110591;1252;41150;-58
2022/04/18 02:44:37;;;;;;;12.30;5.10;;;;;-0.20;97355.80;;;;110753;1252;41616;-57
2022/04/18 02:47:08;;;;;;;12.00;5.50;;;;;-0.20;97350.80;;;;110724;1251;41763;-58
2022/04/18 02:49:38;;;;;;;12.60;5.60;;;;;-0.20;97353.80;;;;110745;1251;42388;-59
2022/04/18 02:52:09;;;;;;;13.00;5.50;;;;;-0.20;97347.00;;;;110649;1252;41164;-59
2022/04/18 02:54:39;;;;;;;12.20;5.50;;;;;-0.20;97347.40;;;;110705;1252;41562;-58
2022/04/18 02:57:11;;;;;;;15.60;6.30;;;;;-0.26;97340.60;;;;110783;1251;41226;-59
2022/04/18 02:59:40;;;;;;;;;;;;;-0.30;97340.60;;;;110743;1251;41622;-58
2022/04/18 03:02:10;;;;;;;12.50;5.70;;;;;-0.32;97338.40;;;;110771;1252;41151;-59
2022/04/18 03:04:40;;;;;;;13.60;6.10;;;;;-0.38;97337.60;;;;110676;1252;42386;-59
2022/04/18 03:07:11;;;;;;;10.80;5.00;;;;;-0.40;97335.60;;;;110777;1251;41141;-58
2022/04/18 03:09:41;;;;;;;11.10;4.90;;;;;-0.40;97341.60;;;;110721;1252;42087;-58
2022/04/18 03:12:11;;;;;;;10.30;4.70;;;;;-0.40;97338.20;;;;110798;1251;41677;-58
2022/04/18 03:14:43;;;;;;;14.50;5.10;;;;;-0.40;97341.20;;;;110714;1251;41384;-58
2022/04/18 03:17:12;;;;;;;15.40;6.40;;;;;-0.40;97349.20;;;;110771;1252;41135;-59
2022/04/18 03:19:42;;;;;;;12.00;4.70;;;;;-0.40;97347.60;;;;110470;1253;41615;-59
2022/04/18 03:22:12;;;;;;;16.30;6.00;;;;;-0.44;97347.60;;;;110506;1251;41171;-59
2022/04/18 03:24:45;;;;;;;9.70;4.70;;;;;-0.50;97348.60;;;;110752;1251;41257;-59
2022/04/18 03:27:20;;;;;;;11.30;4.60;;;;;-0.50;97348.40;;;;110721;1251;41771;-59
2022/04/18 03:29:50;;;;;;;;;;;;;-0.50;97348.80;;;;110809;1252;41302;-59
2022/04/18 03:32:24;;;;;;;9.30;4.10;;;;;-0.50;97345.20;;;;110670;1252;41143;-61
2022/04/18 03:34:56;;;;;;;11.50;4.60;;;;;-0.50;97345.80;;;;110760;1250;41277;-59
2022/04/18 03:40:14;;;;;;;11.90;4.50;;;;;-0.50;97342.00;;;;110787;1251;42080;-58
2022/04/18 03:42:44;;;;;;;11.30;4.70;;;;;-0.50;97341.20;;;;110804;1252;41284;-58
2022/04/18 03:45:16;;;;;;;10.40;4.70;;;;;-0.50;97341.60;;;;110573;1253;41297;-58
2022/04/18 03:47:47;;;;;;;12.10;6.00;;;;;-0.40;97348.60;;;;110462;1252;41150;-59
2022/04/18 03:50:17;;;;;;;11.10;5.10;;;;;-0.40;97344.20;;;;110830;1251;41311;-59
2022/04/18 03:52:47;;;;;;;12.40;5.50;;;;;-0.40;97342.00;;;;110663;1254;41269;-59
2022/04/18 03:55:37;;;;;;;11.10;5.50;;;;;-0.40;97337.60;;;;110672;1251;41703;-58
2022/04/18 03:58:14;;;;;;;12.80;5.40;;;;;-0.40;97341.40;;;;110595;1253;41730;-58
2022/04/18 04:00:45;;;;;;;13.50;6.50;;;;;-0.40;97345.60;;;;110540;1253;41397;-58
2022/04/18 04:03:15;;;;;;;16.60;6.80;;;;;-0.40;97338.40;;;;110710;1251;41258;-58
2022/04/18 04:05:50;;;;;;;16.00;7.00;;;;;-0.40;97343.40;;;;110731;1251;41262;-58
2022/04/18 04:08:23;;;;;;;15.50;8.00;;;;;-0.38;97342.00;;;;110763;1252;41171;-57
2022/04/18 04:10:57;;;;;;;18.30;7.30;;;;;-0.34;97341.60;;;;110595;1251;41134;-59
2022/04/18 04:13:27;;;;;;;;;;;;;-0.32;97340.00;;;;110660;1251;41236;-59
2022/04/18 04:16:13;;;;;;;13.40;6.10;;;;;-0.32;97346.20;;;;110695;1250;41287;-59
2022/04/18 04:18:43;;;;;;;14.90;6.50;;;;;-0.30;97348.80;;;;110733;1251;41147;-58
2022/04/18 04:21:13;;;;;;;14.70;6.80;;;;;-0.26;97344.80;;;;110693;1252;41263;-59
2022/04/18 04:23:42;;;;;;;13.10;6.30;;;;;-0.20;97349.60;;;;110773;1251;41142;-56
2022/04/18 04:26:33;;;;;;;15.90;6.50;;;;;-0.10;97346.80;;;;110805;1251;41265;-58
2022/04/18 04:29:02;;;;;;;20.50;8.70;;;;;-0.10;97344.20;;;;110809;1251;41150;-58
2022/04/18 04:31:38;;;;;;;19.10;9.00;;;;;0.00;97339.20;;;;110660;1253;41278;-59
2022/04/18 04:34:10;;;;;;;17.10;8.80;;;;;0.10;97336.80;;;;110698;1251;41163;-58
2022/04/18 04:36:46;;;;;;;19.80;10.20;;;;;0.20;97338.80;;;;110804;1251;41269;-58
2022/04/18 04:39:17;;;;;;;19.90;9.90;;;;;0.26;97330.00;;;;110726;1252;41145;-59
2022/04/18 04:41:48;;;;;;;23.20;9.90;;;;;0.30;97326.40;;;;110703;1251;42637;-58
2022/04/18 04:44:18;;;;;;;16.40;8.50;;;;;0.40;97321.60;;;;110777;1251;41758;-59
2022/04/18 04:47:00;;;;;;;15.90;8.10;;;;;0.50;97319.40;;;;110742;1250;41352;-60
2022/04/18 04:49:30;;;;;;;17.40;9.10;;;;;0.56;97322.60;;;;110774;1249;41141;-61
2022/04/18 04:52:34;;;;;;;21.40;8.40;;;;;0.70;97324.60;;;;110867;1251;41263;-59
2022/04/18 04:55:06;;;;;;;15.60;8.30;;;;;0.80;97318.40;;;;110564;1252;41161;-59
2022/04/18 04:57:44;;;;;;;15.60;6.90;;;;;0.90;97318.80;;;;110586;1251;42062;-58
2022/04/18 05:00:31;;;;;;;15.90;7.60;;;;;1.00;97321.00;;;;110757;1251;41164;-58
2022/04/18 05:03:19;;;;;;;16.40;6.80;;;;;1.10;97322.40;;;;110692;1251;41181;-59
2022/04/18 05:05:48;;;;;;;19.40;8.00;;;;;1.20;97315.60;;;;110652;1251;41268;-59
2022/04/18 05:08:53;;;;;;;13.40;6.80;;;;;1.30;97316.00;;;;110679;1249;41197;-58
2022/04/18 05:11:40;;;;;;;14.10;6.70;;;;;1.40;97313.40;;;;110665;1251;41357;-58
2022/04/18 05:14:16;;;;;;;16.00;6.60;;;;;1.50;97309.60;;;;110724;1251;41136;-58
2022/04/18 05:16:56;;;;;;;13.90;6.70;;;;;1.66;97307.80;;;;110615;1251;41263;-59
2022/04/18 05:19:46;;;;;;;13.40;6.30;;;;;1.80;97311.00;;;;110673;1251;41264;-57
2022/04/18 05:22:37;;;;;;;12.50;5.80;;;;;1.90;97312.20;;;;110718;1251;41723;-58
2022/04/18 05:25:09;;;;;;;12.20;5.90;;;;;2.00;97306.80;;;;110606;1250;41958;-58
2022/04/18 05:27:45;;;;;;;14.60;5.20;;;;;2.10;97301.20;;;;110818;1251;41259;-58
2022/04/18 05:30:36;;;;;;;12.30;5.20;;;;;2.20;97300.60;;;;110624;1251;41509;-58
2022/04/18 05:33:07;;;;;;;13.30;5.30;;;;;2.30;97309.60;;;;110600;1251;41852;-58
2022/04/18 05:35:48;;;;;;;11.50;5.40;;;;;2.40;97303.80;;;;110717;1251;41358;-58
2022/04/18 05:38:18;;;;;;;12.90;5.50;;;;;2.50;97301.40;;;;110829;1251;41147;-59
2022/04/18 05:40:52;;;;;;;13.90;5.70;;;;;2.60;97298.20;;;;110807;1251;41271;-58
2022/04/18 05:43:22;;;;;;;13.50;5.50;;;;;2.70;97295.80;;;;110657;1252;41619;-58
2022/04/18 05:45:51;;;;;;;14.10;6.00;;;;;2.80;97298.20;;;;110660;1251;41151;-58
2022/04/18 05:48:20;;;;;;;14.30;5.90;;;;;2.90;97294.80;;;;110508;1251;41150;-58
2022/04/18 05:50:52;;;;;;;12.40;5.40;;;;;3.08;97291.00;;;;110590;1251;41259;-58
2022/04/18 05:53:27;;;;;;;12.50;5.50;;;;;3.20;97288.40;;;;110617;1251;42628;-58
2022/04/18 05:56:05;;;;;;;14.90;6.40;;;;;3.36;97288.40;;;;110674;1251;41431;-58
2022/04/18 05:58:42;;;;;;;12.70;5.50;;;;;3.40;97282.40;;;;110617;1251;41133;-58
2022/04/18 06:01:46;;;;;;;15.30;7.30;;;;;3.50;97284.20;;;;110371;1256;42311;-58
2022/04/18 06:04:39;;;;;;;19.60;7.40;;;;;3.60;97288.60;;;;110566;1252;41233;-59
2022/04/18 06:07:29;;;;;;;12.10;5.40;;;;;3.70;97288.80;;;;110527;1251;41336;-59
2022/04/18 06:10:26;;;;;;;12.90;4.80;;;;;3.80;97281.80;;;;110606;1251;42415;-58
2022/04/18 06:13:15;;;;;;;11.90;5.00;;;;;3.90;97285.80;;;;110806;1251;41163;-59
2022/04/18 06:15:47;;;;;;;13.70;5.70;;;;;4.08;97282.80;;;;110799;1251;41264;-59
2022/04/18 06:18:16;;;;;;;12.90;5.50;;;;;4.20;97283.40;;;;110740;1251;41181;-59
2022/04/18 06:20:45;;;;;;;13.20;5.10;;;;;4.30;97283.60;;;;110722;1251;41155;-59
2022/04/18 06:23:18;;;;;;;11.70;4.70;;;;;4.46;97280.20;;;;110801;1252;41431;-59
2022/04/18 06:25:51;;;;;;;10.90;4.60;;;;;4.58;97274.80;;;;110547;1251;41303;-59
2022/04/18 06:28:21;;;;;;;8.10;3.60;;;;;4.70;97275.60;;;;109888;1251;936695;-59
2022/04/18 06:30:51;;;;;;;8.50;3.60;;;;;4.90;97276.80;;;;110680;1251;41169;-59
2022/04/18 06:33:37;;;;;;;9.80;2.80;;;;;5.08;97279.60;;;;110751;1251;41172;-58
2022/04/18 06:36:07;;;;;;;6.80;2.90;;;;;5.20;97269.20;;;;110721;1251;41705;-58
2022/04/18 06:38:43;;;;;;;7.40;2.70;;;;;5.30;97268.20;;;;110680;1251;41275;-58
2022/04/18 06:41:23;;;;;;;6.60;2.60;;;;;5.40;97266.80;;;;110691;1250;41269;-59
2022/04/18 06:43:52;;;;;;;3.50;1.90;;;;;5.60;97266.20;;;;110659;1251;41191;-58
2022/04/18 06:46:21;;;;;;;5.60;2.30;;;;;5.76;97261.00;;;;110723;1251;41143;-59
2022/04/18 06:48:51;;;;;;;5.60;2.30;;;;;5.96;97260.40;;;;110617;1251;41774;-59
2022/04/18 06:51:38;;;;;;;6.80;2.30;;;;;6.20;97254.80;;;;110597;1251;41332;-60
2022/04/18 06:54:46;;;;;;;9.30;2.60;;;;;6.40;97256.00;;;;110309;1255;41770;-59
2022/04/18 06:57:16;;;;;;;6.30;2.40;;;;;6.58;97253.40;;;;110275;1257;41373;-59
2022/04/18 06:59:55;;;;;;;6.80;2.60;;;;;6.70;97250.80;;;;110524;1252;42389;-59
2022/04/18 07:02:26;;;;;;;8.00;2.80;;;;;6.80;97253.00;;;;110788;1251;41664;-59
2022/04/18 07:04:55;;;;;;;5.30;2.30;;;;;6.90;97251.60;;;;110782;1251;42233;-60
2022/04/18 07:07:24;;;;;;;4.30;2.00;;;;;7.10;97248.80;;;;110807;1249;41808;-59
2022/04/18 07:09:54;;;;;;;3.20;1.80;;;;;7.30;97236.80;;;;110764;1249;42381;-59
2022/04/18 07:12:24;;;;;;;4.00;2.00;;;;;7.50;97241.00;;;;110526;1251;41341;-59
2022/04/18 07:14:55;;;;;;;4.80;2.00;;;;;7.66;97238.20;;;;110682;1251;41638;-59
2022/04/18 07:17:25;;;;;;;4.20;2.00;;;;;7.80;97236.20;;;;110654;1251;41733;-59
2022/04/18 07:19:54;;;;;;;4.70;2.10;;;;;7.80;97235.40;;;;110641;1251;41160;-59
2022/04/18 07:22:24;;;;;;;4.90;2.00;;;;;7.90;97232.40;;;;110690;1251;41120;-59
2022/04/18 07:24:59;;;;;;;4.00;2.00;;;;;7.92;97232.00;;;;110571;1252;41261;-59
2022/04/18 07:27:31;;;;;;;4.90;1.70;;;;;8.00;97231.40;;;;110572;1251;42251;-58
2022/04/18 07:30:03;;;;;;;3.30;1.70;;;;;8.10;97230.20;;;;110723;1251;41388;-59
2022/04/18 07:32:40;;;;;;;6.20;2.30;;;;;8.20;97221.60;;;;110536;1252;41479;-59
2022/04/18 07:35:12;;;;;;;3.80;1.90;;;;;8.30;97216.20;;;;110748;1251;40721;-59
2022/04/18 07:40:42;;;;;;;5.50;1.70;;;;;8.30;97211.00;;;;110670;1251;41148;-59
2022/04/18 07:43:12;;;;;;;2.80;1.60;;;;;8.40;97214.60;;;;110707;1250;41613;-59
2022/04/18 07:45:41;;;;;;;4.30;1.90;;;;;8.40;97207.20;;;;110781;1249;41231;-58
2022/04/18 07:48:10;;;;;;;4.40;1.90;;;;;8.40;97210.60;;;;110797;1251;41154;-59
2022/04/18 07:53:31;;;;;;;4.30;1.90;;;;;8.50;97203.00;;;;110597;1252;41384;-59
2022/04/18 07:56:01;;;;;;;;;;;;;8.70;97203.40;;;;110716;1251;41252;-59
2022/04/18 07:58:32;;;;;;;4.00;1.80;;;;;8.94;97195.60;;;;110789;1250;42198;-59
2022/04/18 08:01:01;;;;;;;3.60;1.80;;;;;9.10;97197.60;;;;110774;1250;41385;-59
2022/04/18 08:03:35;;;;;;;5.20;1.90;;;;;9.30;97191.40;;;;110767;1251;41160;-59
2022/04/18 08:06:05;;;;;;;4.30;1.80;;;;;9.40;97193.40;;;;110786;1251;42326;-60
2022/04/18 08:08:48;;;;;;;4.10;1.80;;;;;9.64;97188.80;;;;110568;1252;41266;-57
2022/04/18 08:11:17;;;;;;;3.40;1.60;;;;;9.90;97191.20;;;;110606;1250;41562;-60
2022/04/18 08:13:51;;;;;;;4.10;1.80;;;;;10.20;97183.40;;;;110783;1251;41460;-58
2022/04/18 08:16:38;;;;;;;3.30;1.70;;;;;10.40;97179.20;;;;110659;1250;41651;-59
2022/04/18 08:19:21;;;;;;;4.00;1.70;;;;;10.50;97176.80;;;;110619;1250;41890;-59
2022/04/18 08:21:50;;;;;;;3.70;1.80;;;;;10.60;97174.80;;;;110786;1250;41603;-59
2022/04/18 08:24:20;;;;;;;3.20;1.70;;;;;10.70;97178.80;;;;110775;1251;41140;-59
2022/04/18 08:27:07;;;;;;;3.00;1.60;;;;;10.70;97173.60;;;;110774;1251;41352;-59
2022/04/18 08:29:46;;;;;;;5.70;2.10;;;;;10.80;97175.60;;;;110632;1251;41934;-59
2022/04/18 08:32:21;;;;;;;4.00;1.70;;;;;10.90;97172.80;;;;110626;1251;41169;-59
2022/04/18 08:34:54;;;;;;;4.60;1.70;;;;;10.90;97174.60;;;;110642;1251;41537;-59
2022/04/18 08:37:24;;;;;;;5.30;1.90;;;;;10.98;97164.60;;;;110665;1252;41161;-59
2022/04/18 08:40:13;;;;;;;3.00;1.70;;;;;11.16;97158.00;;;;110621;1251;41197;-59
2022/04/18 08:42:42;;;;;;;3.20;1.70;;;;;11.30;97159.80;;;;110421;1252;41690;-59
2022/04/18 08:45:14;;;;;;;3.10;1.60;;;;;11.40;97154.00;;;;110645;1252;41266;-59
2022/04/18 08:53:26;;;;;;;3.20;1.60;;;;;12.00;97143.80;;;;110782;1250;41512;-59
2022/04/18 08:55:57;;;;;;;2.50;1.50;;;;;12.40;97141.00;;;;110619;1251;41286;-61
2022/04/18 08:58:34;;;;;;;4.10;1.80;;;;;12.80;97141.60;;;;110638;1252;41151;-59
2022/04/18 09:01:05;;;;;;;5.80;2.20;;;;;13.16;97135.20;;;;110684;1251;41451;-59
2022/04/18 09:04:07;;;;;;;7.80;2.60;;;;;13.38;97133.20;;;;110539;1252;41585;-59
2022/04/18 09:06:39;;;;;;;4.50;2.10;;;;;13.58;97135.60;;;;110765;1249;41237;-59
2022/04/18 09:09:16;;;;;;;6.10;2.50;;;;;14.00;97126.20;;;;110795;1251;42112;-59
2022/04/18 09:11:46;;;;;;;7.40;2.90;;;;;14.60;97124.40;;;;110566;1252;41169;-59
2022/04/18 09:14:19;;;;;;;8.00;2.70;;;;;14.98;97120.40;;;;110539;1251;41452;-59
2022/04/18 09:16:50;;;;;;;7.00;2.50;;;;;16.10;97112.20;;;;110654;1251;41715;-59
2022/04/18 09:19:39;;;;;;;6.20;2.60;;;;;16.26;97111.60;;;;110464;1251;41346;-59
2022/04/18 09:22:13;;;;;;;7.80;3.00;;;;;16.00;97115.00;;;;110776;1249;41147;-60
2022/04/18 09:24:47;;;;;;;9.30;3.00;;;;;15.64;97091.60;;;;110773;1249;41741;-59
2022/04/18 09:27:27;;;;;;;6.30;2.60;;;;;16.56;97083.80;;;;110645;1251;41382;-60
2022/04/18 09:30:07;;;;;;;8.90;2.90;;;;;16.90;97097.60;;;;110716;1249;42259;-60
2022/04/18 09:32:40;;;;;;;6.50;2.70;;;;;16.70;97079.60;;;;110572;1252;41169;-59
2022/04/18 09:35:28;;;;;;;6.90;2.60;;;;;17.04;97082.80;;;;110629;1251;41203;-60
2022/04/18 09:38:01;;;;;;;7.10;2.90;;;;;17.80;97086.60;;;;110586;1252;41163;-59
2022/04/18 09:40:50;;;;;;;5.70;2.40;;;;;18.62;97080.60;;;;110608;1251;41258;-59
2022/04/18 09:43:22;;;;;;;4.40;2.10;;;;;19.14;97076.00;;;;110772;1250;41729;-59
2022/04/18 09:45:53;;;;;;;4.60;2.00;;;;;20.42;97074.20;;;;110728;1252;41140;-59
2022/04/18 09:48:27;;;;;;;4.90;1.90;;;;;22.36;97062.00;;;;110521;1253;41165;-60
2022/04/18 09:50:59;;;;;;;4.00;2.00;;;;;24.52;97048.80;;;;110514;1252;41944;-59
2022/04/18 09:53:45;;;;;;;6.20;2.40;;;;;26.16;97037.80;;;;110802;1251;41497;-59
2022/04/18 09:56:16;;;;;;;4.50;1.90;;;;;26.88;97026.00;;;;110648;1252;41406;-60
2022/04/18 09:58:44;;;;;;;3.00;1.60;;;;;27.42;97027.00;;;;110690;1250;41394;-60
2022/04/18 10:01:35;;;;;;;3.90;1.80;;;;;27.70;97022.20;;;;110614;1251;41166;-59
2022/04/18 10:04:05;;;;;;;4.80;1.70;;;;;27.56;97036.80;;;;110645;1252;42135;-60
2022/04/18 10:06:35;;;;;;;3.80;1.60;;;;;27.30;97025.80;;;;110655;1251;41982;-60
2022/04/18 10:09:04;;;;;;;5.20;1.80;;;;;27.94;97015.80;;;;110680;1251;41948;-60
2022/04/18 10:11:33;;;;;;;3.40;1.50;;;;;29.30;97017.20;;;;110787;1250;41468;-60
2022/04/18 10:14:03;;;;;;;3.10;1.60;;;;;29.80;97032.60;;;;110746;1252;42280;-60
2022/04/18 10:16:32;;;;;;;3.20;1.40;;;;;28.16;97026.60;;;;110787;1250;41638;-60
2022/04/18 10:19:26;;;;;;;1.80;1.40;;;;;27.40;97024.60;;;;110784;1249;41601;-60
2022/04/18 10:22:15;;;;;;;2.20;1.20;;;;;26.90;97021.80;;;;110571;1251;41227;-58
2022/04/18 10:25:16;;;;;;;2.20;1.20;;;;;26.74;97038.40;;;;110852;1251;41492;-59
2022/04/18 10:27:52;;;;;;;;;;;;;26.44;97025.00;;;;110565;1252;42365;-59
2022/04/18 10:30:22;;;;;;;3.40;1.50;;;;;26.06;97041.40;;;;110655;1252;42161;-59
2022/04/18 10:32:51;;;;;;;2.90;1.50;;;;;24.58;97045.20;;;;110651;1251;42204;-60
2022/04/18 10:35:22;;;;;;;3.90;1.50;;;;;23.22;97043.00;;;;110790;1251;41674;-60
2022/04/18 10:37:55;;;;;;;3.40;1.60;;;;;22.24;97044.40;;;;110599;1251;42545;-60
2022/04/18 10:40:24;;;;;;;1.70;1.30;;;;;21.52;97042.20;;;;110672;1252;40758;-59
2022/04/18 10:42:55;;;;;;;2.30;1.40;;;;;21.88;97031.20;;;;110862;1249;41215;-60
2022/04/18 10:45:24;;;;;;;2.40;1.40;;;;;23.78;97012.00;;;;110818;1251;41280;-60
2022/04/18 10:48:01;;;;;;;2.10;1.30;;;;;25.54;97008.40;;;;110822;1251;41129;-60
2022/04/18 10:50:39;;;;;;;3.00;1.40;;;;;27.56;96999.80;;;;110731;1251;42143;-60
2022/04/18 10:53:19;;;;;;;2.70;1.40;;;;;28.78;96987.40;;;;110727;1249;41672;-60
2022/04/18 10:55:50;;;;;;;;;;;;;29.90;97006.80;;;;110654;1251;41287;-60
2022/04/18 10:58:25;;;;;;;2.10;1.20;;;;;29.04;96998.40;;;;110767;1250;41597;-60
2022/04/18 11:00:56;;;;;;;2.10;1.30;;;;;27.12;97003.60;;;;110735;1251;41289;-60
2022/04/18 11:03:36;;;;;;;;;;;;;25.38;97008.60;;;;110773;1250;41277;-61
2022/04/18 11:06:17;;;;;;;3.10;1.50;;;;;24.16;97014.40;;;;110716;1249;41150;-60
2022/04/18 11:09:07;;;;;;;3.90;1.70;;;;;22.86;97017.20;;;;110787;1250;41273;-60
2022/04/18 11:11:51;;;;;;;3.10;1.50;;;;;21.48;97020.20;;;;110698;1251;41262;-60
2022/04/18 11:14:25;;;;;;;3.50;1.50;;;;;20.62;97018.00;;;;110604;1251;41178;-60
2022/04/18 11:17:00;;;;;;;3.20;1.70;;;;;20.06;97026.60;;;;110470;1251;41617;-59
2022/04/18 11:19:30;;;;;;;5.60;1.80;;;;;19.42;97022.00;;;;110683;1251;41604;-61
2022/04/18 11:22:12;;;;;;;5.20;1.90;;;;;18.74;97010.60;;;;110784;1249;41960;-60
2022/04/18 11:24:54;;;;;;;4.30;1.70;;;;;18.22;97019.80;;;;110806;1249;41182;-61
2022/04/18 11:27:26;;;;;;;2.90;1.60;;;;;19.22;96989.00;;;;110769;1251;41156;-61
2022/04/18 11:30:01;;;;;;;3.90;1.50;;;;;22.10;96977.60;;;;110781;1249;41137;-61
2022/04/18 11:32:34;;;;;;;1.80;1.40;;;;;24.98;96971.40;;;;110625;1251;41583;-61
2022/04/18 11:35:07;;;;;;;2.70;1.50;;;;;27.62;96969.20;;;;110677;1251;41147;-61
2022/04/18 11:37:43;;;;;;;2.80;1.50;;;;;28.80;96972.60;;;;110673;1251;41384;-61
2022/04/18 11:40:16;;;;;;;1.80;1.20;;;;;27.88;96972.20;;;;110675;1249;41796;-61
2022/04/18 11:42:47;;;;;;;4.00;1.70;;;;;27.10;96952.80;;;;110711;1251;40876;-61
2022/04/18 11:45:26;;;;;;;1.70;1.20;;;;;27.64;96957.80;;;;110647;1252;41262;-61
2022/04/18 11:47:55;;;;;;;2.00;1.30;;;;;27.56;96950.00;;;;110731;1251;41884;-61
2022/04/18 11:50:24;;;;;;;2.10;1.30;;;;;27.58;96936.80;;;;110702;1251;41202;-59
2022/04/18 11:53:01;;;;;;;2.80;1.30;;;;;28.26;96946.80;;;;110654;1251;41140;-60
2022/04/18 11:55:31;;;;;;;1.70;1.20;;;;;29.20;96958.80;;;;110702;1251;41357;-60
2022/04/18 11:57:59;;;;;;;2.30;1.10;;;;;29.00;96951.60;;;;110685;1252;41258;-60
2022/04/18 12:08:51;;;;;;;2.80;1.40;;;;;28.48;96935.60;;;;110778;1250;42385;-61
2022/04/18 12:11:20;;;;;;;2.30;1.30;;;;;29.66;96936.20;;;;110833;1251;40728;-61
2022/04/18 12:13:49;;;;;;;5.70;1.30;;;;;30.24;96935.60;;;;110696;1251;41662;-61
2022/04/18 12:16:21;;;;;;;3.60;1.40;;;;;30.10;96923.80;;;;110654;1251;41323;-61
2022/04/18 12:18:54;;;;;;;3.70;1.30;;;;;28.72;96919.20;;;;110689;1251;41159;-61
2022/04/18 12:21:24;;;;;;;2.00;1.30;;;;;27.82;96942.60;;;;110782;1250;41766;-61
2022/04/18 12:23:55;;;;;;;4.00;1.40;;;;;26.90;96927.40;;;;110801;1251;41601;-61
2022/04/18 12:26:29;;;;;;;2.60;1.40;;;;;27.30;96933.40;;;;110580;1251;41166;-61
2022/04/18 12:29:02;;;;;;;2.10;1.20;;;;;27.44;96949.60;;;;110625;1251;41533;-61
2022/04/18 12:31:31;;;;;;;2.90;1.20;;;;;26.68;96951.20;;;;110572;1253;42259;-61
2022/04/18 12:34:00;;;;;;;2.20;1.30;;;;;25.64;96952.40;;;;110848;1250;41162;-62
2022/04/18 12:36:32;;;;;;;1.60;1.20;;;;;24.38;96948.60;;;;110826;1250;41595;-60
2022/04/18 12:39:03;;;;;;;2.40;1.30;;;;;22.98;96948.60;;;;110810;1250;41253;-60
2022/04/18 12:41:34;;;;;;;2.60;1.30;;;;;22.16;96952.60;;;;110822;1250;41143;-60
2022/04/18 12:44:11;;;;;;;2.00;1.20;;;;;21.24;96957.40;;;;110711;1253;41620;-60
2022/04/18 12:46:41;;;;;;;1.30;1.20;;;;;20.48;96962.60;;;;110821;1250;41371;-60
2022/04/18 12:49:11;;;;;;;2.60;1.30;;;;;19.96;96960.40;;;;110763;1250;42202;-60
2022/04/18 12:51:42;;;;;;;1.90;1.30;;;;;19.40;96961.80;;;;110834;1250;41171;-60
2022/04/18 12:54:21;;;;;;;2.40;1.40;;;;;19.06;96962.00;;;;110645;1251;41401;-60
2022/04/18 12:56:51;;;;;;;3.20;1.40;;;;;18.42;96965.60;;;;110632;1251;41751;-60
2022/04/18 12:59:28;;;;;;;4.20;1.60;;;;;17.52;96965.60;;;;110836;1250;41151;-60
2022/04/18 13:02:08;;;;;;;2.10;1.20;;;;;17.02;96965.20;;;;110818;1250;41146;-60
2022/04/18 13:04:36;;;;;;;1.30;1.20;;;;;16.80;96965.40;;;;110769;1250;41445;-60
2022/04/18 13:07:07;;;;;;;1.50;1.30;;;;;16.82;96964.80;;;;110536;1250;41175;-60
2022/04/18 13:09:36;;;;;;;2.20;1.10;;;;;16.90;96965.00;;;;110734;1250;42649;-62
2022/04/18 13:12:09;;;;;;;2.00;1.20;;;;;17.00;96964.40;;;;110701;1250;41263;-61
2022/04/18 13:14:58;;;;;;;1.60;1.20;;;;;17.08;96957.80;;;;110586;1253;41146;-60
2022/04/18 13:17:27;;;;;;;1.30;1.20;;;;;17.00;96959.00;;;;110463;1254;41695;-60